createdAt,value
2022-11-21T00:01:24.157Z,95700.66
2022-11-21T00:03:51.695Z,95709.00
2022-11-21T00:06:19.170Z,95711.28
2022-11-21T00:08:46.507Z,95695.72
2022-11-21T00:11:13.631Z,95702.31
2022-11-21T00:13:41.165Z,95707.66
2022-11-21T00:16:13.854Z,95704.22
2022-11-21T00:18:41.769Z,95707.97
2022-11-21T00:21:15.154Z,95704.34
2022-11-21T00:23:43.486Z,95696.63
2022-11-21T00:26:12.583Z,95695.84
2022-11-21T00:28:39.589Z,95707.88
2022-11-21T00:31:07.032Z,95691.13
2022-11-21T00:33:37.333Z,95694.91
2022-11-21T00:36:09.116Z,95702.69
2022-11-21T00:38:36.785Z,95698.22
2022-11-21T00:41:03.874Z,95689.28
2022-11-21T00:43:30.709Z,95700.00
2022-11-21T00:45:59.408Z,95697.97
2022-11-21T00:48:26.236Z,95704.66
2022-11-21T00:50:53.040Z,95687.06
2022-11-21T00:53:19.853Z,95695.59
2022-11-21T00:55:46.703Z,95694.63
2022-11-21T00:58:13.476Z,95693.34
2022-11-21T01:00:40.376Z,95694.91
2022-11-21T01:03:07.164Z,95691.47
2022-11-21T01:05:34.142Z,95687.38
2022-11-21T01:08:00.972Z,95685.50
2022-11-21T01:10:27.744Z,95681.41
2022-11-21T01:12:54.565Z,95686.50
2022-11-21T01:15:21.356Z,95671.94
2022-11-21T01:17:48.253Z,95691.13
2022-11-21T01:20:15.191Z,95686.84
2022-11-21T01:22:42.065Z,95691.84
2022-11-21T01:25:09.056Z,95701.00
2022-11-21T01:27:36.053Z,95701.16
2022-11-21T01:30:03.706Z,95684.28
2022-11-21T01:32:30.483Z,95690.88
2022-11-21T01:34:57.314Z,95687.13
2022-11-21T01:37:24.165Z,95690.09
2022-11-21T01:39:51.591Z,95677.00
2022-11-21T01:42:18.410Z,95671.00
2022-11-21T01:44:54.459Z,95676.34
2022-11-21T01:47:22.674Z,95667.63
2022-11-21T01:49:52.223Z,95660.63
2022-11-21T01:52:31.855Z,95667.53
2022-11-21T01:55:08.020Z,95678.69
2022-11-21T01:57:45.480Z,95672.06
2022-11-21T02:00:27.876Z,95658.69
2022-11-21T02:03:00.735Z,95655.69
2022-11-21T02:05:31.695Z,95658.38
2022-11-21T02:08:14.579Z,95653.84
2022-11-21T02:10:56.865Z,95662.41
2022-11-21T02:13:23.723Z,95642.94
2022-11-21T02:15:50.924Z,95648.91
2022-11-21T02:18:17.782Z,95643.28
2022-11-21T02:20:51.356Z,95649.66
2022-11-21T02:24:00.162Z,95634.66
2022-11-21T02:26:27.394Z,95636.91
2022-11-21T02:28:54.639Z,95629.66
2022-11-21T02:31:21.452Z,95630.88
2022-11-21T02:33:48.264Z,95632.31
2022-11-21T02:36:46.133Z,95627.50
2022-11-21T02:39:33.753Z,95628.03
2022-11-21T02:43:03.724Z,95627.50
2022-11-21T02:45:43.122Z,95631.34
2022-11-21T02:48:11.040Z,95627.63
2022-11-21T02:50:41.059Z,95617.13
2022-11-21T02:53:12.108Z,95629.56
2022-11-21T02:55:39.264Z,95618.69
2022-11-21T02:58:06.413Z,95622.63
2022-11-21T03:00:35.438Z,95623.50
2022-11-21T03:03:02.375Z,95605.34
2022-11-21T03:05:29.552Z,95611.97
2022-11-21T03:07:56.513Z,95610.47
2022-11-21T03:10:23.413Z,95597.44
2022-11-21T03:12:50.225Z,95597.53
2022-11-21T03:15:17.215Z,95599.19
2022-11-21T03:17:44.084Z,95602.63
2022-11-21T03:20:11.385Z,95596.00
2022-11-21T03:22:38.205Z,95591.50
2022-11-21T03:25:05.569Z,95589.59
2022-11-21T03:27:32.370Z,95581.38
2022-11-21T03:29:59.204Z,95578.34
2022-11-21T03:32:26.067Z,95573.53
2022-11-21T03:34:53.513Z,95566.63
2022-11-21T03:37:20.433Z,95576.72
2022-11-21T03:39:47.228Z,95586.28
2022-11-21T03:42:14.051Z,95589.06
2022-11-21T03:44:40.858Z,95578.69
2022-11-21T03:47:07.869Z,95581.09
2022-11-21T03:49:34.672Z,95574.22
2022-11-21T03:52:01.522Z,95574.53
2022-11-21T03:54:28.557Z,95577.81
2022-11-21T03:56:55.492Z,95584.25
2022-11-21T03:59:22.296Z,95572.59
2022-11-21T04:01:49.248Z,95567.38
2022-11-21T04:04:16.139Z,95574.84
2022-11-21T04:06:42.971Z,95580.19
2022-11-21T04:09:09.893Z,95578.63
2022-11-21T04:11:37.622Z,95571.84
2022-11-21T04:14:04.532Z,95569.41
2022-11-21T04:16:31.349Z,95565.47
2022-11-21T04:18:58.325Z,95567.09
2022-11-21T04:21:25.186Z,95573.97
2022-11-21T04:23:52.069Z,95568.66
2022-11-21T04:26:18.890Z,95573.69
2022-11-21T04:28:45.741Z,95575.78
2022-11-21T04:31:12.547Z,95573.19
2022-11-21T04:33:39.925Z,95557.47
2022-11-21T04:36:08.630Z,95556.22
2022-11-21T04:38:36.024Z,95551.41
2022-11-21T04:41:02.877Z,95552.91
2022-11-21T04:43:29.675Z,95552.97
2022-11-21T04:45:56.471Z,95558.50
2022-11-21T04:48:23.316Z,95550.94
2022-11-21T04:50:50.332Z,95544.56
2022-11-21T04:53:17.158Z,95553.34
2022-11-21T04:55:43.992Z,95553.19
2022-11-21T04:58:10.882Z,95545.72
2022-11-21T05:00:37.673Z,95551.16
2022-11-21T05:03:06.713Z,95559.31
2022-11-21T05:05:33.922Z,95567.00
2022-11-21T05:08:00.699Z,95558.53
2022-11-21T05:10:27.597Z,95568.28
2022-11-21T05:13:18.532Z,95556.63
2022-11-21T05:15:45.525Z,95565.56
2022-11-21T05:18:12.387Z,95553.25
2022-11-21T05:20:39.313Z,95548.66
2022-11-21T05:23:06.395Z,95549.13
2022-11-21T05:25:33.272Z,95546.13
2022-11-21T05:28:00.225Z,95551.44
2022-11-21T05:30:27.115Z,95539.16
2022-11-21T05:32:53.988Z,95538.44
2022-11-21T05:35:20.811Z,95533.84
2022-11-21T05:37:47.657Z,95522.91
2022-11-21T05:40:14.603Z,95532.19
2022-11-21T05:43:01.428Z,95535.78
2022-11-21T05:45:28.199Z,95536.59
2022-11-21T05:47:54.972Z,95532.03
2022-11-21T05:50:21.830Z,95539.31
2022-11-21T05:52:48.669Z,95534.34
2022-11-21T05:55:15.588Z,95539.34
2022-11-21T05:57:42.511Z,95537.13
2022-11-21T06:00:09.960Z,95530.38
2022-11-21T06:02:55.258Z,95532.03
2022-11-21T06:05:22.145Z,95539.31
2022-11-21T06:07:49.290Z,95534.34
2022-11-21T06:10:17.883Z,95527.25
2022-11-21T06:12:44.686Z,95529.16
2022-11-21T06:15:11.553Z,95531.97
2022-11-21T06:17:38.424Z,95536.84
2022-11-21T06:20:05.922Z,95534.78
2022-11-21T06:22:32.765Z,95544.25
2022-11-21T06:24:59.602Z,95537.69
2022-11-21T06:27:26.483Z,95537.63
2022-11-21T06:29:53.288Z,95536.19
2022-11-21T06:32:20.211Z,95539.72
2022-11-21T06:34:47.154Z,95538.16
2022-11-21T06:37:13.935Z,95528.22
2022-11-21T06:39:40.727Z,95530.16
2022-11-21T06:42:07.576Z,95540.88
2022-11-21T06:44:34.372Z,95534.75
2022-11-21T06:47:01.181Z,95528.81
2022-11-21T06:49:28.029Z,95531.66
2022-11-21T06:51:54.891Z,95544.94
2022-11-21T06:54:21.682Z,95547.59
2022-11-21T06:56:52.164Z,95547.56
2022-11-21T06:59:19.002Z,95560.19
2022-11-21T07:01:45.851Z,95564.75
2022-11-21T07:04:12.711Z,95564.53
2022-11-21T07:06:39.498Z,95561.38
2022-11-21T07:11:53.107Z,95571.28
2022-11-21T07:14:19.990Z,95578.28
2022-11-21T07:16:46.763Z,95577.59
2022-11-21T07:19:13.596Z,95576.84
2022-11-21T07:21:40.386Z,95583.44
2022-11-21T07:24:07.352Z,95589.00
2022-11-21T07:26:34.168Z,95577.84
2022-11-21T07:29:01.151Z,95578.31
2022-11-21T07:31:27.986Z,95579.47
2022-11-21T07:33:54.823Z,95589.97
2022-11-21T07:36:21.634Z,95584.91
2022-11-21T07:38:48.539Z,95585.94
2022-11-21T07:41:15.353Z,95580.25
2022-11-21T07:43:42.201Z,95587.56
2022-11-21T07:46:11.363Z,95592.75
2022-11-21T07:48:38.237Z,95589.16
2022-11-21T07:51:05.949Z,95591.13
2022-11-21T07:53:32.956Z,95589.69
2022-11-21T07:56:00.762Z,95580.66
2022-11-21T07:58:27.620Z,95597.09
2022-11-21T08:00:54.526Z,95595.94
2022-11-21T08:03:22.601Z,95602.50
2022-11-21T08:05:49.640Z,95596.31
2022-11-21T08:08:16.499Z,95588.09
2022-11-21T08:10:45.512Z,95593.47
2022-11-21T08:13:13.152Z,95602.84
2022-11-21T08:15:40.008Z,95580.38
2022-11-21T08:18:15.121Z,95594.84
2022-11-21T08:20:43.028Z,95594.44
2022-11-21T08:23:10.765Z,95587.00
2022-11-21T08:25:39.463Z,95588.81
2022-11-21T08:28:08.361Z,95590.84
2022-11-21T08:30:36.304Z,95594.84
2022-11-21T08:33:04.199Z,95597.28
2022-11-21T08:35:31.236Z,95597.09
2022-11-21T08:38:02.340Z,95593.28
2022-11-21T08:40:31.726Z,95589.19
2022-11-21T08:42:59.879Z,95593.69
2022-11-21T08:45:26.844Z,95597.41
2022-11-21T08:47:54.579Z,95600.50
2022-11-21T08:50:22.876Z,95618.22
2022-11-21T08:52:50.176Z,95609.38
2022-11-21T08:55:17.126Z,95608.56
2022-11-21T08:57:43.972Z,95608.94
2022-11-21T09:00:14.352Z,95610.16
2022-11-21T09:02:41.200Z,95631.31
2022-11-21T09:05:08.906Z,95630.72
2022-11-21T09:07:36.009Z,95624.19
2022-11-21T09:10:03.434Z,95617.16
2022-11-21T09:12:30.996Z,95617.03
2022-11-21T09:15:16.313Z,95620.00
2022-11-21T09:18:01.567Z,95617.88
2022-11-21T09:20:28.572Z,95613.53
2022-11-21T09:22:55.471Z,95614.03
2022-11-21T09:25:22.320Z,95625.91
2022-11-21T09:27:49.131Z,95632.16
2022-11-21T09:30:16.639Z,95624.03
2022-11-21T09:32:43.491Z,95618.44
2022-11-21T09:35:10.337Z,95621.09
2022-11-21T09:37:40.357Z,95611.97
2022-11-21T09:40:18.655Z,95621.25
2022-11-21T09:42:57.333Z,95613.97
2022-11-21T09:45:49.854Z,95611.66
2022-11-21T09:48:30.912Z,95604.56
2022-11-21T09:51:11.806Z,95598.03
2022-11-21T09:53:57.531Z,95589.41
2022-11-21T09:56:26.364Z,95597.44
2022-11-21T09:59:25.592Z,95596.66
2022-11-21T10:01:52.437Z,95589.44
2022-11-21T10:04:19.273Z,95596.97
2022-11-21T10:07:10.185Z,95577.09
2022-11-21T10:10:11.112Z,95586.13
2022-11-21T10:12:56.491Z,95570.09
2022-11-21T10:16:07.244Z,95577.22
2022-11-21T10:18:56.569Z,95574.84
2022-11-21T10:21:52.288Z,95564.31
2022-11-21T10:24:30.854Z,95562.25
2022-11-21T10:27:07.164Z,95565.63
2022-11-21T10:29:57.988Z,95558.03
2022-11-21T10:32:31.137Z,95551.91
2022-11-21T10:35:14.108Z,95564.72
2022-11-21T10:37:48.093Z,95552.41
2022-11-21T10:40:45.075Z,95551.50
2022-11-21T10:43:50.607Z,95540.91
2022-11-21T10:46:17.422Z,95539.69
2022-11-21T10:48:56.294Z,95547.56
2022-11-21T10:51:47.900Z,95538.16
2022-11-21T10:54:33.620Z,95537.44
2022-11-21T10:57:20.788Z,95534.34
2022-11-21T11:00:01.130Z,95525.94
2022-11-21T11:02:28.239Z,95530.50
2022-11-21T11:05:22.200Z,95525.88
2022-11-21T11:08:12.240Z,95523.78
2022-11-21T11:10:45.041Z,95524.88
2022-11-21T11:13:50.106Z,95523.19
2022-11-21T11:16:21.394Z,95510.34
2022-11-21T11:19:03.311Z,95504.16
2022-11-21T11:21:44.163Z,95490.03
2022-11-21T11:24:10.948Z,95490.50
2022-11-21T11:26:48.487Z,95482.97
2022-11-21T11:29:32.479Z,95464.09
2022-11-21T11:31:59.413Z,95463.84
2022-11-21T11:34:38.228Z,95464.88
2022-11-21T11:37:20.707Z,95471.25
2022-11-21T11:40:07.384Z,95457.63
2022-11-21T11:43:28.923Z,95459.94
2022-11-21T11:46:49.005Z,95453.81
2022-11-21T11:50:01.465Z,95454.56
2022-11-21T11:52:35.004Z,95459.59
2022-11-21T11:55:08.794Z,95452.41
2022-11-21T11:57:37.538Z,95463.75
2022-11-21T12:00:27.853Z,95452.63
2022-11-21T12:03:12.690Z,95453.22
2022-11-21T12:05:52.371Z,95452.09
2022-11-21T12:08:41.566Z,95441.88
2022-11-21T12:11:44.709Z,95444.56
2022-11-21T12:14:40.410Z,95439.81
2022-11-21T12:17:10.327Z,95419.78
2022-11-21T12:19:39.100Z,95413.94
2022-11-21T12:22:06.664Z,95418.78
2022-11-21T12:24:42.551Z,95416.34
2022-11-21T12:27:45.160Z,95406.09
2022-11-21T12:30:25.173Z,95414.88
2022-11-21T12:32:58.748Z,95404.84
2022-11-21T12:36:17.356Z,95402.13
2022-11-21T12:39:10.159Z,95394.34
2022-11-21T12:42:42.850Z,95384.47
2022-11-21T12:45:32.567Z,95375.00
2022-11-21T12:48:37.593Z,95367.94
2022-11-21T12:52:03.622Z,95358.81
2022-11-21T12:55:15.694Z,95356.03
2022-11-21T12:58:13.079Z,95354.22
2022-11-21T13:01:10.043Z,95356.94
2022-11-21T13:04:17.664Z,95345.34
2022-11-21T13:06:48.872Z,95340.97
2022-11-21T13:09:20.556Z,95329.84
2022-11-21T13:11:59.299Z,95336.34
2022-11-21T13:14:45.952Z,95325.31
2022-11-21T13:17:34.691Z,95325.56
2022-11-21T13:20:25.907Z,95321.94
2022-11-21T13:23:06.591Z,95321.81
2022-11-21T13:25:35.326Z,95322.09
2022-11-21T13:28:14.263Z,95312.09
2022-11-21T13:30:51.255Z,95315.59
2022-11-21T13:33:48.327Z,95317.22
2022-11-21T13:36:31.954Z,95314.72
2022-11-21T13:38:58.788Z,95312.03
2022-11-21T13:41:53.172Z,95308.38
2022-11-21T13:44:32.119Z,95303.69
2022-11-21T13:47:15.160Z,95296.69
2022-11-21T13:50:16.376Z,95287.88
2022-11-21T13:53:38.265Z,95286.09
2022-11-21T13:56:42.677Z,95272.97
2022-11-21T13:59:48.255Z,95277.69
2022-11-21T14:03:04.216Z,95278.97
2022-11-21T14:05:46.238Z,95259.53
2022-11-21T14:08:18.704Z,95255.53
2022-11-21T14:10:46.920Z,95258.16
2022-11-21T14:13:33.650Z,95264.16
2022-11-21T14:16:24.423Z,95255.28
2022-11-21T14:18:51.825Z,95252.59
2022-11-21T14:21:27.167Z,95253.28
2022-11-21T14:23:58.246Z,95254.19
2022-11-21T14:26:25.822Z,95250.38
2022-11-21T14:28:52.910Z,95246.69
2022-11-21T14:31:19.787Z,95241.56
2022-11-21T14:33:48.068Z,95241.47
2022-11-21T14:36:29.843Z,95242.00
2022-11-21T14:39:35.535Z,95242.13
2022-11-21T14:41:55.235Z,95228.94
2022-11-21T14:44:23.399Z,95235.47
2022-11-21T14:46:51.727Z,95239.03
2022-11-21T14:49:24.459Z,95231.50
2022-11-21T14:52:10.847Z,95224.94
2022-11-21T14:55:13.550Z,95218.13
2022-11-21T14:57:39.223Z,95214.50
2022-11-21T15:00:07.552Z,95210.44
2022-11-21T15:02:35.159Z,95208.84
2022-11-21T15:05:12.552Z,95203.44
2022-11-21T15:07:47.643Z,95200.66
2022-11-21T15:10:30.093Z,95186.66
2022-11-21T15:13:08.256Z,95193.94
2022-11-21T15:15:40.700Z,95191.28
2022-11-21T15:18:29.893Z,95188.38
2022-11-21T15:21:01.387Z,95182.09
2022-11-21T15:23:35.270Z,95189.03
2022-11-21T15:26:02.618Z,95184.13
2022-11-21T15:28:30.939Z,95167.34
2022-11-21T15:31:20.427Z,95163.44
2022-11-21T15:34:33.261Z,95162.66
2022-11-21T15:37:18.065Z,95149.88
2022-11-21T15:39:48.673Z,95150.88
2022-11-21T15:42:27.793Z,95153.63
2022-11-21T15:45:02.327Z,95151.00
2022-11-21T15:47:29.229Z,95145.59
2022-11-21T15:49:56.106Z,95144.34
2022-11-21T15:52:23.464Z,95146.66
2022-11-21T15:54:50.351Z,95140.06
2022-11-21T15:59:50.516Z,95126.06
2022-11-21T16:02:17.456Z,95124.50
2022-11-21T16:04:44.297Z,95117.38
2022-11-21T16:07:11.166Z,95122.28
2022-11-21T16:09:38.767Z,95116.31
2022-11-21T16:12:05.671Z,95116.38
2022-11-21T16:14:32.462Z,95108.41
2022-11-21T16:16:59.301Z,95100.75
2022-11-21T16:19:26.248Z,95104.78
2022-11-21T16:21:53.700Z,95098.34
2022-11-21T16:24:20.711Z,95095.91
2022-11-21T16:26:49.396Z,95098.53
2022-11-21T16:29:18.911Z,95103.66
2022-11-21T16:31:45.995Z,95097.25
2022-11-21T16:34:13.112Z,95088.78
2022-11-21T16:36:39.948Z,95088.38
2022-11-21T16:39:11.189Z,95081.91
2022-11-21T16:41:41.117Z,95077.09
2022-11-21T16:44:14.278Z,95078.75
2022-11-21T16:46:48.136Z,95075.56
2022-11-21T16:49:15.174Z,95067.56
2022-11-21T16:51:42.049Z,95057.56
2022-11-21T16:54:09.674Z,95060.56
2022-11-21T16:56:36.756Z,95046.72
2022-11-21T16:59:03.573Z,95049.94
2022-11-21T17:01:30.515Z,95052.31
2022-11-21T17:03:57.518Z,95049.72
2022-11-21T17:06:29.050Z,95050.78
2022-11-21T17:08:56.003Z,95042.16
2022-11-21T17:11:30.576Z,95044.81
2022-11-21T17:14:02.311Z,95034.38
2022-11-21T17:16:29.923Z,95042.03
2022-11-21T17:18:59.635Z,95038.19
2022-11-21T17:21:27.886Z,95031.78
2022-11-21T17:23:55.264Z,95019.97
2022-11-21T17:26:25.452Z,95013.56
2022-11-21T17:28:58.243Z,95009.94
2022-11-21T17:31:25.493Z,95011.13
2022-11-21T17:33:54.302Z,94998.72
2022-11-21T17:36:23.961Z,94991.50
2022-11-21T17:38:52.246Z,94987.06
2022-11-21T17:41:21.402Z,94978.25
2022-11-21T17:43:48.984Z,94973.44
2022-11-21T17:46:18.651Z,94978.22
2022-11-21T17:48:54.264Z,94977.41
2022-11-21T17:51:28.980Z,94973.00
2022-11-21T17:53:56.018Z,94972.22
2022-11-21T17:56:26.327Z,94963.63
2022-11-21T17:58:53.464Z,94968.63
2022-11-21T18:01:21.932Z,94964.63
2022-11-21T18:04:01.795Z,94958.63
2022-11-21T18:06:33.469Z,94962.22
2022-11-21T18:09:00.414Z,94948.56
2022-11-21T18:11:39.149Z,94953.00
2022-11-21T18:14:08.698Z,94951.41
2022-11-21T18:16:36.401Z,94948.56
2022-11-21T18:19:03.342Z,94944.78
2022-11-21T18:21:33.460Z,94949.56
2022-11-21T18:24:00.583Z,94947.59
2022-11-21T18:26:31.239Z,94936.56
2022-11-21T18:29:36.218Z,94933.75
2022-11-21T18:31:48.463Z,94922.94
2022-11-21T18:34:15.272Z,94927.75
2022-11-21T18:36:42.153Z,94921.31
2022-11-21T18:39:14.801Z,94915.88
2022-11-21T18:41:42.708Z,94905.28
2022-11-21T18:44:09.959Z,94902.06
2022-11-21T18:46:38.240Z,94904.84
2022-11-21T18:49:06.891Z,94898.03
2022-11-21T18:51:35.418Z,94891.25
2022-11-21T18:54:07.870Z,94887.22
2022-11-21T18:56:36.495Z,94879.63
2022-11-21T18:59:05.656Z,94870.00
2022-11-21T19:01:33.745Z,94870.59
2022-11-21T19:04:00.680Z,94883.00
2022-11-21T19:06:29.053Z,94870.81
2022-11-21T19:08:57.620Z,94864.00
2022-11-21T19:11:29.665Z,94864.41
2022-11-21T19:13:59.179Z,94857.59
2022-11-21T19:16:28.413Z,94849.97
2022-11-21T19:19:26.453Z,94845.16
2022-11-21T19:21:42.969Z,94853.16
2022-11-21T19:24:14.557Z,94844.38
2022-11-21T19:26:42.058Z,94836.53
2022-11-21T19:29:09.737Z,94842.31
2022-11-21T19:31:43.027Z,94827.50
2022-11-21T19:34:13.990Z,94819.94
2022-11-21T19:36:41.524Z,94808.72
2022-11-21T19:39:09.021Z,94815.50
2022-11-21T19:41:35.976Z,94806.69
2022-11-21T19:44:03.090Z,94808.31
2022-11-21T19:46:37.294Z,94811.53
2022-11-21T19:49:06.597Z,94808.72
2022-11-21T19:51:41.929Z,94790.88
2022-11-21T19:54:11.819Z,94788.31
2022-11-21T19:56:39.104Z,94781.50
2022-11-21T19:59:05.921Z,94787.13
2022-11-21T20:01:34.934Z,94779.50
2022-11-21T20:04:04.464Z,94769.88
2022-11-21T20:06:35.385Z,94754.88
2022-11-21T20:09:20.388Z,94753.66
2022-11-21T20:11:50.678Z,94736.84
2022-11-21T20:14:22.221Z,94751.06
2022-11-21T20:16:52.850Z,94737.84
2022-11-21T20:19:22.655Z,94740.25
2022-11-21T20:21:49.766Z,94737.44
2022-11-21T20:24:17.070Z,94732.66
2022-11-21T20:26:45.050Z,94703.41
2022-11-21T20:29:15.548Z,94694.78
2022-11-21T20:31:45.543Z,94680.78
2022-11-21T20:34:13.749Z,94683.38
2022-11-21T20:36:41.720Z,94691.41
2022-11-21T20:39:15.200Z,94701.00
2022-11-21T20:41:42.059Z,94725.84
2022-11-21T20:47:09.104Z,94730.00
2022-11-21T20:49:35.990Z,94724.63
2022-11-21T20:53:43.768Z,94712.16
2022-11-21T20:54:49.637Z,94710.56
2022-11-21T20:57:16.536Z,94705.78
2022-11-21T20:59:43.556Z,94710.81
2022-11-21T21:02:14.318Z,94710.59
2022-11-21T21:04:41.829Z,94704.63
2022-11-21T21:07:08.832Z,94703.56
2022-11-21T21:09:35.687Z,94696.19
2022-11-21T21:12:02.515Z,94701.78
2022-11-21T21:14:29.362Z,94701.00
2022-11-21T21:16:56.210Z,94697.38
2022-11-21T21:19:23.246Z,94694.59
2022-11-21T21:21:50.232Z,94704.00
2022-11-21T21:24:17.440Z,94697.19
2022-11-21T21:26:47.977Z,94690.97
2022-11-21T21:29:21.207Z,94681.41
2022-11-21T21:31:52.819Z,94677.38
2022-11-21T21:34:22.275Z,94678.19
2022-11-21T21:36:50.850Z,94669.56
2022-11-21T21:39:17.982Z,94669.38
2022-11-21T21:41:46.641Z,94687.38
2022-11-21T21:44:14.865Z,94674.19
2022-11-21T21:46:41.958Z,94678.56
2022-11-21T21:49:09.030Z,94676.56
2022-11-21T21:51:37.275Z,94681.38
2022-11-21T21:54:04.963Z,94688.16
2022-11-21T21:56:32.243Z,94693.56
2022-11-21T21:58:59.620Z,94698.59
2022-11-21T22:01:29.641Z,94693.78
2022-11-21T22:03:59.996Z,94698.59
2022-11-21T22:06:27.589Z,94694.97
2022-11-21T22:08:55.801Z,94691.34
2022-11-21T22:11:24.637Z,94683.34
2022-11-21T22:14:06.894Z,94682.56
2022-11-21T22:16:33.904Z,94678.16
2022-11-21T22:19:00.720Z,94680.13
2022-11-21T22:21:34.095Z,94672.13
2022-11-21T22:26:50.998Z,94680.97
2022-11-21T22:29:17.871Z,94674.94
2022-11-21T22:31:44.739Z,94664.97
2022-11-21T22:34:13.966Z,94664.13
2022-11-21T22:36:41.487Z,94664.16
2022-11-21T22:39:08.501Z,94670.16
2022-11-21T22:41:35.361Z,94656.97
2022-11-21T22:44:02.183Z,94655.97
2022-11-21T22:46:30.459Z,94654.53
2022-11-21T22:48:58.422Z,94645.78
2022-11-21T22:51:29.261Z,94657.78
2022-11-21T22:53:56.662Z,94660.16
2022-11-21T22:56:24.648Z,94663.34
2022-11-21T22:58:52.094Z,94672.97
2022-11-21T23:01:26.638Z,94670.97
2022-11-21T23:03:55.486Z,94656.97
2022-11-21T23:06:25.276Z,94658.56
2022-11-21T23:08:54.394Z,94660.78
2022-11-21T23:11:28.267Z,94654.16
2022-11-21T23:13:57.103Z,94655.78
2022-11-21T23:16:24.990Z,94674.19
2022-11-21T23:18:53.662Z,94673.78
2022-11-21T23:21:22.260Z,94660.94
2022-11-21T23:23:49.338Z,94668.59
2022-11-21T23:26:16.167Z,94679.00
2022-11-21T23:28:42.989Z,94673.00
2022-11-21T23:31:10.563Z,94667.38
2022-11-21T23:33:37.493Z,94666.97
2022-11-21T23:36:04.641Z,94652.97
2022-11-21T23:38:31.832Z,94645.78
2022-11-21T23:40:58.684Z,94634.19
2022-11-21T23:43:25.595Z,94653.41
2022-11-21T23:45:53.732Z,94641.56
2022-11-21T23:48:21.495Z,94636.56
2022-11-21T23:50:50.894Z,94640.56
2022-11-21T23:53:21.340Z,94650.16
2022-11-21T23:55:48.996Z,94640.56
2022-11-21T23:58:16.428Z,94646.16
